Mallard, IA (50562)

7:43 PM CST on February 21, 2017 (GMT -0600)
Mallard | | Change Station
Active Advisory: Winter Storm Watch

Elev 1224 ft 42.94 °N, 94.68 °W | Updated 10 minutes ago

Clear
Clear
50.3 °F
Feels Like 50.3 °F
N
3.0
Wind Variable Wind from South
Gusts 8.0 mph

Today
High -- | Low -- °F
--% Chance of Precip.
Yesterday
High -- | Low -- °F
Precip. -- in
Pressure 29.75 in
Visibility 10.0 miles
Clouds Clear
Dew Point 45 °F
Humidity 82%
Rainfall 0.00 in
Snow Depth Not available.
7:06 AM 5:58 PM
Waning Crescent, 21% visible
METAR KAXA 220135Z AUTO 18012KT 10SM CLR 10/07 A2975 RMK AO2
Pressure 29.75 in
Visibility 10.0 miles
Clouds Clear
Dew Point 45 °F
Humidity 82%
Rainfall 0.00 in
Snow Depth Not available.
7:06 AM 5:58 PM
Waning Crescent, 21% visible
METAR KAXA 220135Z AUTO 18012KT 10SM CLR 10/07 A2975 RMK AO2

Get Your Daily Forecast Email!

Thanks for signing up!

Be on the lookout for a verification email in your inbox.

You'll start receiving the daily forecast at 8 AM.

×

10-Day Weather Forecast

Almanac

Astronomy

Feb. 21, 2017 Rise Set
Actual Time
Civil Twilight
Nautical Twilight
Astronomical Twilight
Moon
Length of Visible Light
Length of Day
Tomorrow will be .
, % of the Moon is Illuminated

Today's Extremes

State Highs State Lows

Community

WunderPhotos

Upload Photos

1,962,540 photos uploaded!

WunderBlog® & News

Nearby

Air Quality

  Air Quality AQ Index Pollutant
Not available.

Snow Depth

Station Depth Elevation

Earthquake Activity

City Distance Mag. Time & Date
Minimum magnitude displayed is 2.5.

Coastal Water Temperatures

Place Temperature

Stations

Nearby Weather Stations

Station Location Temp. Windchill Dew Point Humidity Wind Precip. Elev Updated Type
                   

Watches & Warnings

Winter Storm Watch
Issued: 3:42 PM CST Feb. 21, 2017 – National Weather Service

... Winter Storm Watch in effect from Thursday evening through
Friday afternoon...

The National Weather Service in Des Moines has issued a Winter
Storm Watch, which is in effect from Thursday evening through
Friday afternoon.

* Timing or short term trends... rain will transition to snow
Friday morning... with strong winds arriving Friday morning.
Though intensity will be diminished by then, light blowing snow
will continue into Friday evening.

* Storm total snow/ice accumulations... 3 to 6 inches across
northern Iowa, with locally higher amounts possible.

* Winds/visibility... winds becoming NW at 20 to 30 mph, with gusts
nearing 35 mph. Visibility will be reduced to well under one
mile during periods of heavier snow.

* Impacts... reduced visibility along with blowing and drifting
snow may severely impact travel Friday into Saturday morning.

Precautionary/preparedness actions...

A Winter Storm Watch means there is a potential for significant
snow, sleet, or ice accumulations that may impact travel.
Continue to monitor the latest forecasts.



Kotenberg